Linthicum Heights, MD

11:36 PM EST on November 26, 2014 (GMT -0500)
Martin State | Change Station
CLOSE
Current Station
Airport
Location: Baltimore Martin,
Elevation: 23 ft
Nearby Weather Stations

Elev 23 ft 39.32 °N, 76.41 °W | Updated 6 minutes ago

Overcast
Overcast
37 °F
Feels Like 32 °F
N
7
Wind Variable Wind from West

Today
High -- | Low -- °F
--% Chance of Precip.
Yesterday
High -- | Low -- °F
Precip. -- in
7:02 AM 4:45 PM
Waxing Crescent, 25% visible
Pressure 30.00 in
Visibility 10.0 miles
Clouds Scattered Clouds 1700 ft
Mostly Cloudy 4500 ft
Mostly Cloudy 5500 ft
Windchill 32 °F
Dew Point 34 °F
Humidity 87%
Rainfall 0.09 in
Snow Depth Not available.
UV 0 out of 12
Pollen .10 out of 12
Air Quality Not available.
Flu Activity Not available.
METAR KMTN 270430Z AUTO 26006KT 10SM SCT017 BKN045 BKN055 03/01 A3000 RMK AO2

More Conditions Fewer Conditions

Pressure 30.00 in
Visibility 10.0 miles
Clouds Scattered Clouds 1700 ft
Mostly Cloudy 4500 ft
Mostly Cloudy 5500 ft
Windchill 32 °F
Dew Point 34 °F
Humidity 87%
Rainfall 0.09 in
Snow Depth Not available.
UV 0 out of 12
Pollen .10 out of 12
Air Quality Not available.
Flu Activity Not available.
METAR KMTN 270430Z AUTO 26006KT 10SM SCT017 BKN045 BKN055 03/01 A3000 RMK AO2

More Conditions Fewer Conditions

10-Day Weather Forecast

Almanac

Astronomy

Nov. 26, 2014 Rise Set
Actual Time
Civil Twilight
Nautical Twilight
Astronomical Twilight
Moon
Length of Visible Light
Length of Day
Tomorrow will be .
, % of the Moon is Illuminated

Today's Extremes

State Highs State Lows

Community

WunderPhotos

Upload Photos

1,773,959 photos uploaded!

WunderBlogs® & News

Nearby

Air Quality

  Air Quality AQ Index Pollutant
Not available.

Snow Depth

Station Depth Elevation

Earthquake Activity

City Distance Mag. Time & Date
Minimum magnitude displayed is 2.5.

Coastal Water Temperatures

Place Temperature

Nearby Weather Stations